TRA49E GMMX-LEMG
Flight info
| Callsign | TRA49E |
|---|---|
| Flight time | 1h 9m |
| Altitude | 34000 |
| Route | MABAP UR722 SAK UG5 KORIS L27 VJF |
| Aircraft | B738/M-SDE2E3FGHIJ1RWXYZ/LB1 |
Departure
| Time | 2026-05-04 06:36 |
|---|---|
| Airport | Marrakesh Menara Airport (GMMX) |
Arrival
| Time | 2026-05-04 07:46 |
|---|---|
| Airport | Málaga-Costa del Sol Airport (LEMG) |
| Time | Latitude | Longitude | Altitude | Speed | Heading |
|---|---|---|---|---|---|
| 2026-05-04 05:51 | 31.60340 | -8.02541 | 1539 ft | 0 kts | 186° |
| 2026-05-04 06:17 | 31.60341 | -8.02541 | 1530 ft | 0 kts | 186° |
| 2026-05-04 06:18 | 31.60342 | -8.02541 | 1539 ft | 0 kts | 186° |
| 2026-05-04 06:18 | 31.60343 | -8.02541 | 1539 ft | 0 kts | 186° |
| 2026-05-04 06:20 | 31.60345 | -8.02541 | 1539 ft | 0 kts | 186° |
| 2026-05-04 06:21 | 31.60347 | -8.02540 | 1539 ft | 0 kts | 186° |
| 2026-05-04 06:22 | 31.60348 | -8.02540 | 1539 ft | 0 kts | 186° |
| 2026-05-04 06:25 | 31.60354 | -8.02540 | 1530 ft | 0 kts | 186° |
| 2026-05-04 06:26 | 31.60354 | -8.02539 | 1530 ft | 0 kts | 186° |
| 2026-05-04 06:26 | 31.60355 | -8.02539 | 1539 ft | 0 kts | 186° |
| 2026-05-04 06:27 | 31.60357 | -8.02539 | 1531 ft | 0 kts | 186° |
| 2026-05-04 06:28 | 31.60368 | -8.02538 | 1539 ft | 2 kts | 186° |
| 2026-05-04 06:28 | 31.60382 | -8.02536 | 1539 ft | 2 kts | 186° |
| 2026-05-04 06:28 | 31.60397 | -8.02535 | 1539 ft | 2 kts | 193° |
| 2026-05-04 06:29 | 31.60411 | -8.02529 | 1539 ft | 2 kts | 228° |
| 2026-05-04 06:29 | 31.60420 | -8.02514 | 1539 ft | 2 kts | 263° |
| 2026-05-04 06:29 | 31.60421 | -8.02509 | 1539 ft | 0 kts | 273° |
| 2026-05-04 06:31 | 31.60420 | -8.02510 | 1539 ft | 0 kts | 268° |
| 2026-05-04 06:32 | 31.60415 | -8.02511 | 1539 ft | 1 kts | 205° |
| 2026-05-04 06:33 | 31.60472 | -8.02034 | 1531 ft | 11 kts | 6° |
| 2026-05-04 06:34 | 31.60542 | -8.02048 | 1528 ft | 10 kts | 301° |
| 2026-05-04 06:34 | 31.60554 | -8.02106 | 1534 ft | 0 kts | 278° |
| 2026-05-04 06:34 | 31.60554 | -8.02110 | 1538 ft | 5 kts | 278° |
| 2026-05-04 06:34 | 31.60587 | -8.02490 | 1532 ft | 73 kts | 275° |
| 2026-05-04 06:35 | 31.60630 | -8.02985 | 1531 ft | 110 kts | 276° |
| 2026-05-04 06:36 | 31.61655 | -8.13188 | 4657 ft | 224 kts | 275° |
| 2026-05-04 06:37 | 31.61767 | -8.15072 | 5370 ft | 238 kts | 275° |
| 2026-05-04 06:37 | 31.62248 | -8.16974 | 6060 ft | 251 kts | 301° |
| 2026-05-04 06:37 | 31.63449 | -8.18464 | 6890 ft | 256 kts | 328° |
| 2026-05-04 06:37 | 31.65120 | -8.19145 | 7774 ft | 258 kts | 355° |
| 2026-05-04 06:38 | 31.66904 | -8.18918 | 8670 ft | 260 kts | 13° |
| 2026-05-04 06:38 | 31.68671 | -8.18398 | 9513 ft | 264 kts | 15° |
| 2026-05-04 06:40 | 31.82000 | -8.15494 | 14290 ft | 306 kts | 350° |
| 2026-05-04 06:40 | 31.84163 | -8.15792 | 14733 ft | 320 kts | 349° |
| 2026-05-04 06:40 | 31.86421 | -8.16132 | 15156 ft | 334 kts | 349° |
| 2026-05-04 06:40 | 31.88782 | -8.16480 | 15532 ft | 349 kts | 349° |
| 2026-05-04 06:41 | 31.91245 | -8.16822 | 15894 ft | 364 kts | 349° |
| 2026-05-04 06:41 | 31.93789 | -8.17159 | 16430 ft | 371 kts | 349° |
| 2026-05-04 06:41 | 31.96337 | -8.17494 | 17098 ft | 375 kts | 349° |
| 2026-05-04 06:41 | 31.98934 | -8.17847 | 17788 ft | 377 kts | 348° |
| 2026-05-04 06:42 | 32.01555 | -8.18211 | 18463 ft | 381 kts | 348° |
| 2026-05-04 06:42 | 32.04197 | -8.18578 | 19115 ft | 384 kts | 348° |
| 2026-05-04 06:42 | 32.06864 | -8.18944 | 19749 ft | 388 kts | 348° |
| 2026-05-04 06:44 | 32.26407 | -8.17434 | 23558 ft | 418 kts | 1° |
| 2026-05-04 06:44 | 32.29305 | -8.16970 | 24035 ft | 422 kts | 1° |
| 2026-05-04 06:44 | 32.32218 | -8.16508 | 24513 ft | 424 kts | 1° |
| 2026-05-04 06:45 | 32.35150 | -8.16036 | 24941 ft | 427 kts | 1° |
| 2026-05-04 06:45 | 32.38107 | -8.15554 | 25360 ft | 431 kts | 1° |
| 2026-05-04 06:45 | 32.41046 | -8.15075 | 25785 ft | 433 kts | 1° |
| 2026-05-04 06:45 | 32.44043 | -8.14585 | 26208 ft | 436 kts | 1° |
| 2026-05-04 06:46 | 32.47056 | -8.14093 | 26607 ft | 438 kts | 1° |
| 2026-05-04 06:46 | 32.50086 | -8.13598 | 26978 ft | 441 kts | 1° |
| 2026-05-04 06:46 | 32.53134 | -8.13100 | 27360 ft | 443 kts | 1° |
| 2026-05-04 06:46 | 32.56192 | -8.12602 | 27712 ft | 445 kts | 1° |
| 2026-05-04 06:48 | 32.78205 | -8.08992 | 29811 ft | 464 kts | 0° |
| 2026-05-04 06:48 | 32.81404 | -8.08467 | 30213 ft | 464 kts | 0° |
| 2026-05-04 06:49 | 32.84597 | -8.07943 | 30609 ft | 463 kts | 0° |
| 2026-05-04 06:50 | 33.05788 | -7.98342 | 33167 ft | 479 kts | 23° |
| 2026-05-04 06:51 | 33.08696 | -7.96408 | 33512 ft | 478 kts | 22° |
| 2026-05-04 06:51 | 33.11608 | -7.94502 | 33851 ft | 477 kts | 22° |
| 2026-05-04 06:51 | 33.14522 | -7.92607 | 34108 ft | 478 kts | 22° |
| 2026-05-04 06:51 | 33.17458 | -7.90690 | 34111 ft | 483 kts | 22° |
| 2026-05-04 06:52 | 33.23308 | -7.86813 | 34113 ft | 477 kts | 23° |
| 2026-05-04 06:52 | 33.29066 | -7.82999 | 34116 ft | 476 kts | 22° |
| 2026-05-04 06:53 | 33.34862 | -7.79179 | 34114 ft | 476 kts | 22° |
| 2026-05-04 06:53 | 33.40653 | -7.75339 | 34114 ft | 476 kts | 22° |
| 2026-05-04 06:54 | 33.46438 | -7.71495 | 34105 ft | 476 kts | 22° |
| 2026-05-04 06:54 | 33.52231 | -7.67648 | 34101 ft | 476 kts | 22° |
| 2026-05-04 06:55 | 33.58029 | -7.64052 | 34087 ft | 469 kts | 19° |
| 2026-05-04 06:55 | 33.63889 | -7.60638 | 34090 ft | 469 kts | 20° |
| 2026-05-04 06:57 | 33.87138 | -7.46453 | 34085 ft | 469 kts | 20° |
| 2026-05-04 06:58 | 33.92957 | -7.42890 | 34085 ft | 469 kts | 20° |
| 2026-05-04 06:58 | 33.98781 | -7.39332 | 34091 ft | 469 kts | 20° |
| 2026-05-04 06:59 | 34.04606 | -7.35765 | 34087 ft | 470 kts | 20° |
| 2026-05-04 06:59 | 34.10414 | -7.32200 | 34088 ft | 472 kts | 20° |
| 2026-05-04 07:01 | 34.33790 | -7.17797 | 34089 ft | 472 kts | 20° |
| 2026-05-04 07:02 | 34.39606 | -7.14199 | 34089 ft | 472 kts | 20° |
| 2026-05-04 07:02 | 34.45456 | -7.10573 | 34087 ft | 472 kts | 20° |
| 2026-05-04 07:03 | 34.51304 | -7.06945 | 34083 ft | 472 kts | 20° |
| 2026-05-04 07:03 | 34.57152 | -7.03311 | 34089 ft | 472 kts | 20° |
| 2026-05-04 07:04 | 34.62962 | -6.99703 | 34088 ft | 472 kts | 20° |
| 2026-05-04 07:04 | 34.68829 | -6.96131 | 34089 ft | 472 kts | 20° |
| 2026-05-04 07:05 | 34.74692 | -6.92545 | 34084 ft | 472 kts | 20° |
| 2026-05-04 07:05 | 34.80547 | -6.88938 | 34086 ft | 472 kts | 20° |
| 2026-05-04 07:06 | 34.89300 | -6.83553 | 34087 ft | 472 kts | 20° |
| 2026-05-04 07:07 | 34.95171 | -6.79933 | 34080 ft | 473 kts | 20° |
| 2026-05-04 07:09 | 35.18638 | -6.65398 | 34076 ft | 474 kts | 20° |
| 2026-05-04 07:09 | 35.24519 | -6.61741 | 34077 ft | 474 kts | 20° |
| 2026-05-04 07:10 | 35.30408 | -6.58074 | 34080 ft | 476 kts | 20° |
| 2026-05-04 07:12 | 35.53934 | -6.43126 | 34070 ft | 480 kts | 22° |
| 2026-05-04 07:12 | 35.59822 | -6.39267 | 34068 ft | 479 kts | 21° |
| 2026-05-04 07:13 | 35.65683 | -6.35459 | 34067 ft | 480 kts | 21° |
| 2026-05-04 07:13 | 35.71571 | -6.31596 | 34060 ft | 480 kts | 21° |
| 2026-05-04 07:14 | 35.86347 | -6.21965 | 34059 ft | 481 kts | 21° |
| 2026-05-04 07:15 | 35.89315 | -6.20051 | 33810 ft | 483 kts | 21° |
| 2026-05-04 07:15 | 35.92259 | -6.18159 | 33289 ft | 484 kts | 21° |
| 2026-05-04 07:15 | 35.95245 | -6.16235 | 32803 ft | 484 kts | 21° |
| 2026-05-04 07:15 | 35.98224 | -6.14303 | 32325 ft | 483 kts | 21° |
| 2026-05-04 07:16 | 36.01200 | -6.12365 | 31855 ft | 483 kts | 21° |
| 2026-05-04 07:16 | 36.04169 | -6.10430 | 31377 ft | 482 kts | 21° |
| 2026-05-04 07:16 | 36.07134 | -6.08502 | 30902 ft | 481 kts | 21° |
| 2026-05-04 07:16 | 36.10096 | -6.06577 | 30430 ft | 480 kts | 21° |
| 2026-05-04 07:17 | 36.13036 | -6.04663 | 29960 ft | 475 kts | 21° |
| 2026-05-04 07:17 | 36.15904 | -6.02791 | 29498 ft | 469 kts | 21° |
| 2026-05-04 07:17 | 36.18766 | -6.00920 | 29044 ft | 462 kts | 21° |
| 2026-05-04 07:17 | 36.21542 | -5.98965 | 28606 ft | 459 kts | 30° |
| 2026-05-04 07:18 | 36.23988 | -5.96433 | 28177 ft | 459 kts | 43° |
| 2026-05-04 07:18 | 36.25954 | -5.93332 | 27725 ft | 459 kts | 57° |
| 2026-05-04 07:18 | 36.27631 | -5.89966 | 27251 ft | 457 kts | 58° |
| 2026-05-04 07:18 | 36.29228 | -5.86592 | 26793 ft | 451 kts | 59° |
| 2026-05-04 07:19 | 36.30777 | -5.83237 | 26347 ft | 445 kts | 59° |
| 2026-05-04 07:19 | 36.32317 | -5.79935 | 25913 ft | 439 kts | 59° |
| 2026-05-04 07:19 | 36.33842 | -5.76737 | 25497 ft | 434 kts | 58° |
| 2026-05-04 07:19 | 36.35391 | -5.73524 | 25072 ft | 434 kts | 58° |
| 2026-05-04 07:20 | 36.36936 | -5.70304 | 24631 ft | 435 kts | 59° |
| 2026-05-04 07:20 | 36.38469 | -5.67074 | 24203 ft | 433 kts | 59° |
| 2026-05-04 07:20 | 36.39982 | -5.63866 | 23785 ft | 428 kts | 59° |
| 2026-05-04 07:20 | 36.41477 | -5.60694 | 23363 ft | 425 kts | 59° |
| 2026-05-04 07:22 | 36.50410 | -5.38685 | 20535 ft | 394 kts | 108° |
| 2026-05-04 07:22 | 36.49677 | -5.35450 | 20192 ft | 388 kts | 112° |
| 2026-05-04 07:23 | 36.49054 | -5.32175 | 19815 ft | 391 kts | 105° |
| 2026-05-04 07:23 | 36.48675 | -5.28821 | 19435 ft | 392 kts | 101° |
| 2026-05-04 07:23 | 36.48386 | -5.25452 | 19036 ft | 391 kts | 102° |
| 2026-05-04 07:23 | 36.48046 | -5.22154 | 18657 ft | 389 kts | 104° |
| 2026-05-04 07:24 | 36.47613 | -5.18851 | 18281 ft | 386 kts | 106° |
| 2026-05-04 07:24 | 36.47141 | -5.15578 | 17895 ft | 384 kts | 105° |
| 2026-05-04 07:24 | 36.46683 | -5.12323 | 17530 ft | 382 kts | 105° |
| 2026-05-04 07:24 | 36.46258 | -5.09077 | 17159 ft | 380 kts | 104° |
| 2026-05-04 07:25 | 36.45853 | -5.05842 | 16773 ft | 378 kts | 104° |
| 2026-05-04 07:26 | 36.42988 | -4.83994 | 14241 ft | 350 kts | 104° |
| 2026-05-04 07:27 | 36.42603 | -4.81051 | 13901 ft | 340 kts | 104° |
| 2026-05-04 07:27 | 36.42227 | -4.78193 | 13581 ft | 331 kts | 104° |
| 2026-05-04 07:27 | 36.41907 | -4.75382 | 13247 ft | 328 kts | 102° |
| 2026-05-04 07:27 | 36.41662 | -4.72571 | 12923 ft | 329 kts | 101° |
| 2026-05-04 07:28 | 36.41434 | -4.69748 | 12605 ft | 336 kts | 100° |
| 2026-05-04 07:28 | 36.41187 | -4.66851 | 12248 ft | 337 kts | 101° |
| 2026-05-04 07:28 | 36.40921 | -4.63978 | 11906 ft | 333 kts | 102° |
| 2026-05-04 07:28 | 36.40645 | -4.61140 | 11578 ft | 329 kts | 102° |
| 2026-05-04 07:29 | 36.40373 | -4.58336 | 11245 ft | 326 kts | 101° |
| 2026-05-04 07:29 | 36.40112 | -4.55567 | 10999 ft | 318 kts | 101° |
| 2026-05-04 07:29 | 36.40149 | -4.52858 | 10890 ft | 313 kts | 81° |
| 2026-05-04 07:29 | 36.40923 | -4.50379 | 10668 ft | 308 kts | 56° |
| 2026-05-04 07:30 | 36.42268 | -4.48414 | 10383 ft | 300 kts | 45° |
| 2026-05-04 07:30 | 36.43726 | -4.46604 | 10056 ft | 293 kts | 42° |
| 2026-05-04 07:30 | 36.45187 | -4.44874 | 9754 ft | 287 kts | 42° |
| 2026-05-04 07:30 | 36.46611 | -4.43180 | 9461 ft | 280 kts | 43° |
| 2026-05-04 07:31 | 36.47690 | -4.41218 | 9197 ft | 273 kts | 71° |
| 2026-05-04 07:31 | 36.47857 | -4.38936 | 8956 ft | 264 kts | 105° |
| 2026-05-04 07:33 | 36.40146 | -4.27361 | 7771 ft | 243 kts | 135° |
| 2026-05-04 07:33 | 36.39028 | -4.25803 | 7628 ft | 241 kts | 135° |
| 2026-05-04 07:33 | 36.37914 | -4.24259 | 7477 ft | 240 kts | 135° |
| 2026-05-04 07:33 | 36.36802 | -4.22719 | 7332 ft | 240 kts | 135° |
| 2026-05-04 07:34 | 36.35688 | -4.21177 | 7180 ft | 240 kts | 135° |
| 2026-05-04 07:34 | 36.34576 | -4.19638 | 7029 ft | 239 kts | 135° |
| 2026-05-04 07:34 | 36.33470 | -4.18105 | 6880 ft | 238 kts | 135° |
| 2026-05-04 07:34 | 36.32386 | -4.16604 | 6732 ft | 237 kts | 135° |
| 2026-05-04 07:35 | 36.31288 | -4.15084 | 6583 ft | 236 kts | 135° |
| 2026-05-04 07:35 | 36.30190 | -4.13569 | 6433 ft | 237 kts | 135° |
| 2026-05-04 07:35 | 36.29095 | -4.12056 | 6281 ft | 235 kts | 135° |
| 2026-05-04 07:35 | 36.28156 | -4.10400 | 6131 ft | 238 kts | 112° |
| 2026-05-04 07:36 | 36.28091 | -4.08371 | 5991 ft | 242 kts | 72° |
| 2026-05-04 07:36 | 36.28981 | -4.06608 | 5852 ft | 244 kts | 46° |
| 2026-05-04 07:38 | 36.37728 | -4.08529 | 4690 ft | 220 kts | 309° |
| 2026-05-04 07:38 | 36.38749 | -4.09928 | 4535 ft | 217 kts | 308° |
| 2026-05-04 07:38 | 36.39757 | -4.11321 | 4392 ft | 217 kts | 308° |
| 2026-05-04 07:38 | 36.40761 | -4.12713 | 4255 ft | 216 kts | 308° |
| 2026-05-04 07:39 | 36.41763 | -4.14100 | 4116 ft | 216 kts | 309° |
| 2026-05-04 07:39 | 36.42751 | -4.15465 | 3978 ft | 215 kts | 308° |
| 2026-05-04 07:39 | 36.43742 | -4.16843 | 3846 ft | 214 kts | 308° |
| 2026-05-04 07:39 | 36.44733 | -4.18217 | 3717 ft | 213 kts | 308° |
| 2026-05-04 07:40 | 36.45720 | -4.19585 | 3568 ft | 212 kts | 308° |
| 2026-05-04 07:40 | 36.46701 | -4.20943 | 3450 ft | 210 kts | 308° |
| 2026-05-04 07:40 | 36.47675 | -4.22293 | 3334 ft | 209 kts | 309° |
| 2026-05-04 07:40 | 36.48649 | -4.23625 | 3242 ft | 207 kts | 310° |
| 2026-05-04 07:41 | 36.49632 | -4.24923 | 3147 ft | 205 kts | 309° |
| 2026-05-04 07:41 | 36.50565 | -4.26201 | 3061 ft | 194 kts | 308° |
| 2026-05-04 07:41 | 36.51448 | -4.27430 | 2967 ft | 188 kts | 308° |
| 2026-05-04 07:41 | 36.52310 | -4.28635 | 2844 ft | 186 kts | 308° |
| 2026-05-04 07:42 | 36.53156 | -4.29817 | 2723 ft | 184 kts | 308° |
| 2026-05-04 07:42 | 36.54005 | -4.31004 | 2619 ft | 183 kts | 308° |
| 2026-05-04 07:42 | 36.54850 | -4.32185 | 2510 ft | 182 kts | 309° |
| 2026-05-04 07:42 | 36.55694 | -4.33365 | 2411 ft | 183 kts | 309° |
| 2026-05-04 07:43 | 36.56539 | -4.34547 | 2300 ft | 183 kts | 309° |
| 2026-05-04 07:43 | 36.57385 | -4.35729 | 2186 ft | 183 kts | 309° |
| 2026-05-04 07:43 | 36.58235 | -4.36921 | 2066 ft | 184 kts | 309° |
| 2026-05-04 07:43 | 36.59083 | -4.38107 | 1951 ft | 183 kts | 309° |
| 2026-05-04 07:44 | 36.59929 | -4.39293 | 1838 ft | 183 kts | 309° |
| 2026-05-04 07:44 | 36.60772 | -4.40475 | 1728 ft | 183 kts | 309° |
| 2026-05-04 07:44 | 36.61621 | -4.41665 | 1502 ft | 188 kts | 309° |
| 2026-05-04 07:44 | 36.62466 | -4.42854 | 1255 ft | 180 kts | 309° |
| 2026-05-04 07:45 | 36.63276 | -4.43990 | 1021 ft | 171 kts | 309° |
| 2026-05-04 07:45 | 36.64049 | -4.45073 | 798 ft | 164 kts | 309° |
| 2026-05-04 07:45 | 36.64798 | -4.46126 | 588 ft | 160 kts | 311° |
| 2026-05-04 07:45 | 36.65529 | -4.47151 | 400 ft | 157 kts | 309° |
| 2026-05-04 07:46 | 36.66254 | -4.48166 | 208 ft | 154 kts | 309° |
| 2026-05-04 07:46 | 36.66937 | -4.49119 | 44 ft | 129 kts | 311° |
| 2026-05-04 07:46 | 36.67269 | -4.49570 | 47 ft | 27 kts | 333° |
| 2026-05-04 07:46 | 36.67395 | -4.49626 | 45 ft | 8 kts | 348° |
| 2026-05-04 07:47 | 36.67431 | -4.49618 | 43 ft | 2 kts | 31° |
| 2026-05-04 07:47 | 36.67447 | -4.49589 | 42 ft | 5 kts | 71° |
| 2026-05-04 07:47 | 36.67439 | -4.49546 | 42 ft | 0 kts | 110° |
| 2026-05-04 07:49 | 36.67439 | -4.49544 | 42 ft | 0 kts | 110° |
| 2026-05-04 07:49 | 36.67438 | -4.49540 | 42 ft | 1 kts | 110° |
| 2026-05-04 07:49 | 36.67436 | -4.49535 | 42 ft | 1 kts | 110° |
| 2026-05-04 07:50 | 36.67434 | -4.49528 | 41 ft | 1 kts | 111° |
| 2026-05-04 07:50 | 36.67431 | -4.49520 | 40 ft | 1 kts | 111° |
| 2026-05-04 07:50 | 36.67429 | -4.49513 | 41 ft | 0 kts | 112° |
| 2026-05-04 07:51 | 36.67429 | -4.49512 | 41 ft | 0 kts | 112° |
| 2026-05-04 07:51 | 36.67429 | -4.49510 | 42 ft | 1 kts | 97° |
| 2026-05-04 07:51 | 36.67446 | -4.49490 | 40 ft | 6 kts | 38° |
| 2026-05-04 07:51 | 36.67509 | -4.49476 | 41 ft | 12 kts | 22° |
| 2026-05-04 07:52 | 36.67521 | -4.49390 | 41 ft | 11 kts | 114° |
| 2026-05-04 07:52 | 36.67509 | -4.49358 | 40 ft | 0 kts | 114° |